»·PEaware :: GDS55 U42-KVGT

GDS55 :: U42-KVGT

FLIGHT INFORMATION

Flight Status: Arrived
Operator: Unknown
More flights by this operator :: More flights under this callsign
Pilot: Gabor H. (24209)
Aircraft: Unknown
(PC24)
More flights by this aircraft type
Origin: U42 Salt Lake City Mun No 2
United States
Destination: KVGT North Las Vegas
United States
More flights between these airports :: More routes between these airports
Route: FFU MLF MMM
File this flight plan on PilotEdge
Remarks:
Altitude:
(Current/Filed)
32,000ft
Speed:
(Current/Filed)
460kts
Departed: 19-Jun-19 04:26 PM
Arrived: 19-Jun-19 05:17 PM
Distance/Time
Traveled:
305nm/0:51
Distance/Time
To Go:
Arrived

Flight Plot

Page will automatically refresh every two minutes.

Flight plan parsing failed; only flown route is shown


Map Options




Map Legend


Flown Route
Filed Route
Departure Airport
Arrival Airport
Navaid (VOR, NDB)
Fix

Horizontal Profiles

Position Reports

Time Latitude Longitude Heading Altitude Ground
Speed
19-Jun-19 15:59 40.617587 -111.995940 352 4608ft 0kts
19-Jun-19 16:00 40.617587 -111.995940 352 4608ft 0kts
19-Jun-19 16:01 40.617587 -111.995940 352 4608ft 0kts
19-Jun-19 16:02 40.617587 -111.995940 352 4608ft 0kts
19-Jun-19 16:03 40.617587 -111.995940 352 4608ft 0kts
19-Jun-19 16:04 40.617587 -111.995940 352 4608ft 0kts
19-Jun-19 16:05 40.617587 -111.995940 352 4608ft 0kts
19-Jun-19 16:06 40.617587 -111.995940 352 4608ft 0kts
19-Jun-19 16:07 40.617587 -111.995940 352 4608ft 0kts
19-Jun-19 16:08 40.617587 -111.995940 352 4608ft 0kts
19-Jun-19 16:09 40.617587 -111.995940 352 4608ft 0kts
19-Jun-19 16:10 40.617587 -111.995940 352 4608ft 0kts
19-Jun-19 16:11 40.617587 -111.995940 352 4608ft 0kts
19-Jun-19 16:12 40.617587 -111.995940 352 4608ft 0kts
19-Jun-19 16:13 40.617587 -111.995940 352 4608ft 0kts
19-Jun-19 16:14 40.617587 -111.995940 352 4608ft 0kts
19-Jun-19 16:15 40.617587 -111.995940 352 4608ft 0kts
19-Jun-19 16:16 40.617587 -111.995940 352 4608ft 0kts
19-Jun-19 16:17 40.617587 -111.995940 352 4608ft 0kts
19-Jun-19 16:18 40.617587 -111.995940 352 4608ft 0kts
19-Jun-19 16:19 40.617589 -111.995941 352 4608ft 0kts
19-Jun-19 16:20 40.618401 -111.995398 356 4608ft 9kts
19-Jun-19 16:21 40.621343 -111.994598 353 4608ft 11kts
19-Jun-19 16:22 40.626371 -111.995507 352 4608ft 12kts
19-Jun-19 16:23 40.626963 -111.995074 44 4608ft 0kts
19-Jun-19 16:24 40.627218 -111.994209 166 4608ft 7kts
19-Jun-19 16:25 40.587821 -111.988727 177 6162ft 200kts
19-Jun-19 16:26 40.529406 -111.982211 177 9225ft 219kts
19-Jun-19 16:27 40.466929 -111.973342 179 12210ft 233kts
19-Jun-19 16:28 40.380346 -111.962089 178 15521ft 370kts
19-Jun-19 16:29 40.272225 -111.954689 195 19045ft 402kts
19-Jun-19 16:30 40.166044 -112.008518 208 22554ft 421kts
19-Jun-19 16:31 40.057044 -112.076575 209 25622ft 446kts
19-Jun-19 16:32 39.941651 -112.146743 209 29029ft 469kts
19-Jun-19 16:33 39.819655 -112.219064 209 32037ft 497kts
19-Jun-19 16:34 39.692237 -112.293260 208 31993ft 496kts
19-Jun-19 16:35 39.566583 -112.364819 208 31994ft 492kts
19-Jun-19 16:36 39.441231 -112.435344 208 31987ft 491kts
19-Jun-19 16:37 39.315942 -112.505319 207 31987ft 491kts
19-Jun-19 16:38 39.190444 -112.575009 207 31990ft 491kts
19-Jun-19 16:39 39.064725 -112.644438 207 31997ft 492kts
19-Jun-19 16:40 38.938755 -112.713569 207 32008ft 493kts
19-Jun-19 16:41 38.812339 -112.782437 207 32015ft 493kts
19-Jun-19 16:42 38.685806 -112.850720 206 32017ft 494kts
19-Jun-19 16:43 38.558465 -112.918359 206 32012ft 495kts
19-Jun-19 16:44 38.430190 -112.984207 205 32007ft 496kts
19-Jun-19 16:45 38.307569 -113.061302 216 32014ft 489kts
19-Jun-19 16:46 38.195079 -113.157780 218 32022ft 488kts
19-Jun-19 16:47 38.082675 -113.254481 218 32043ft 488kts
19-Jun-19 16:48 37.969116 -113.349161 216 32062ft 490kts
19-Jun-19 16:49 37.853940 -113.443027 215 32069ft 492kts
19-Jun-19 16:51 37.738330 -113.535854 215 32062ft 493kts
19-Jun-19 16:52 37.622427 -113.628092 215 32041ft 493kts
19-Jun-19 16:53 37.505899 -113.720204 215 31999ft 493kts
19-Jun-19 16:54 37.389608 -113.811559 214 30821ft 490kts
19-Jun-19 16:55 37.273751 -113.901939 214 28333ft 491kts
19-Jun-19 16:56 37.158205 -113.991355 214 25836ft 483kts
19-Jun-19 16:57 37.044855 -114.078148 213 23331ft 469kts
19-Jun-19 16:58 36.935025 -114.161011 212 20831ft 452kts
19-Jun-19 16:59 36.828858 -114.239093 211 18332ft 433kts
19-Jun-19 17:00 36.740120 -114.331739 232 15835ft 399kts
19-Jun-19 17:01 36.677921 -114.438849 236 13328ft 363kts
19-Jun-19 17:02 36.627865 -114.524390 233 12049ft 258kts
19-Jun-19 17:03 36.585790 -114.592055 233 12017ft 242kts
19-Jun-19 17:04 36.544696 -114.659060 234 12018ft 244kts
19-Jun-19 17:05 36.504352 -114.725358 234 12015ft 241kts
19-Jun-19 17:06 36.464077 -114.791526 235 12005ft 237kts
19-Jun-19 17:07 36.425115 -114.855210 234 11265ft 229kts
19-Jun-19 17:07 36.394399 -114.905088 233 9983ft 212kts
19-Jun-19 17:09 36.338822 -114.954758 211 8988ft 213kts
19-Jun-19 17:10 36.287346 -114.990890 211 8757ft 220kts
19-Jun-19 17:10 36.248843 -115.017903 211 7678ft 205kts
19-Jun-19 17:12 36.208106 -115.069291 267 6110ft 184kts
19-Jun-19 17:13 36.210842 -115.132547 280 4820ft 186kts
19-Jun-19 17:13 36.236076 -115.172326 311 4360ft 185kts
19-Jun-19 17:14 36.257248 -115.220689 251 3677ft 137kts
19-Jun-19 17:15 36.228713 -115.221576 128 3116ft 136kts
19-Jun-19 17:16 36.209064 -115.195458 135 2210ft 13kts
19-Jun-19 17:17 36.208138 -115.195186 223 2210ft 0kts
19-Jun-19 17:18 36.210330 -115.198234 314 2210ft 11kts
19-Jun-19 17:19 36.208831 -115.201640 222 2210ft 5kts
19-Jun-19 17:20 36.208818 -115.201655 222 2210ft 0kts
19-Jun-19 17:21 36.208818 -115.201655 222 2210ft 0kts
19-Jun-19 17:22 36.208818 -115.201655 222 2210ft 0kts
19-Jun-19 17:23 36.208818 -115.201655 222 2210ft 0kts
19-Jun-19 17:24 36.208818 -115.201655 222 2210ft 0kts
19-Jun-19 17:25 36.208818 -115.201655 222 2210ft 0kts
19-Jun-19 17:26 36.208818 -115.201655 222 2210ft 0kts
19-Jun-19 17:27 36.208818 -115.201655 222 2210ft 0kts
19-Jun-19 17:28 36.208818 -115.201655 222 2210ft 0kts
19-Jun-19 17:29 36.208818 -115.201655 222 2210ft 0kts
19-Jun-19 17:30 36.208818 -115.201655 222 2210ft 0kts
19-Jun-19 17:31 36.208818 -115.201655 222 2210ft 0kts

Navigation Log

Ident Type
Flight plan parsing failed, navigation log unavailable